^^
Meteo Knjazevac Station Historical Data
Daily Summary for September 23, 2021 Units:  English    Metric   Both
Daily Weekly Monthly Yearly Custom
  High: Low: Average:
Temperature: 51.8 °F 44.1 °F 48 °F
Dew Point: 48.2 °F 42.7 °F 46.4 °F
Humidity: 99% 85% 94%
Wind Speed: 7mph 0mph 2.1mph
Wind Gust: 13mph - -
Wind- - WSW
Pressure: 30.24 in 30.19 in -
Precipitation: 0.00 in    
Historical Graphs
 
 
Tabular Data for September 23, 2021
Time Temperature Dew Point Pressure Wind Wind Speed Wind Gust Humidity Rainfall Rate (Hourly) solar Conditions
00:00 49.1 °F 47.4 °F 30.20 in SW 6 mph 9 mph 94% 0.00 in 0 W/m2
00:10 49.1 °F 47.4 °F 30.19 in SW 6 mph 11 mph 94% 0.00 in 0 W/m2
00:20 49.1 °F 47.4 °F 30.19 in SW 3 mph 10 mph 94% 0.00 in 0 W/m2
00:30 49.1 °F 47.4 °F 30.19 in SW 5 mph 8 mph 94% 0.00 in 0 W/m2
00:40 49.1 °F 47.4 °F 30.19 in SW 6 mph 8 mph 94% 0.00 in 0 W/m2
00:50 49.1 °F 47.4 °F 30.19 in SW 3 mph 7 mph 94% 0.00 in 0 W/m2
01:00 49.3 °F 47.3 °F 30.19 in SW 5 mph 8 mph 93% 0.00 in 0 W/m2
01:10 49.3 °F 47.3 °F 30.19 in SW 2 mph 7 mph 93% 0.00 in 0 W/m2
01:20 49.3 °F 47.3 °F 30.19 in WSW 1 mph 3 mph 93% 0.00 in 0 W/m2
01:30 49.5 °F 47.8 °F 30.19 in Calm   3 mph 94% 0.00 in 0 W/m2
01:40 49.5 °F 47.5 °F 30.19 in SSW 3 mph 5 mph 93% 0.00 in 0 W/m2
01:50 49.6 °F 47.7 °F 30.19 in WSW 2 mph 5 mph 93% 0.00 in 0 W/m2
02:00 49.6 °F 47.7 °F 30.19 in WSW 1 mph 3 mph 93% 0.00 in 0 W/m2
02:10 49.8 °F 47.9 °F 30.19 in Calm   3 mph 93% 0.00 in 0 W/m2
02:20 49.8 °F 47.9 °F 30.19 in WSW 3 mph 5 mph 93% 0.00 in 0 W/m2
02:30 49.8 °F 47.9 °F 30.19 in SW 1 mph 5 mph 93% 0.00 in 0 W/m2
02:40 49.8 °F 48.2 °F 30.19 in ESE 2 mph 4 mph 94% 0.00 in 0 W/m2
02:50 49.6 °F 48 °F 30.19 in Calm   4 mph 94% 0.00 in 0 W/m2
03:00 49.6 °F 48 °F 30.19 in South 2 mph 2 mph 94% 0.00 in 0 W/m2
03:10 49.6 °F 48 °F 30.19 in NW 1 mph 2 mph 94% 0.00 in 0 W/m2
03:20 49.6 °F 48 °F 30.19 in Calm   2 mph 94% 0.00 in 0 W/m2
03:30 49.6 °F 48 °F 30.19 in WSW 1 mph 3 mph 94% 0.00 in 0 W/m2
03:40 49.5 °F 47.8 °F 30.19 in SW 2 mph 3 mph 94% 0.00 in 0 W/m2
03:50 49.3 °F 47.6 °F 30.19 in Calm   3 mph 94% 0.00 in 0 W/m2
04:00 49.1 °F 47.7 °F 30.19 in Calm   2 mph 95% 0.00 in 0 W/m2
04:10 49.1 °F 47.4 °F 30.19 in SW 1 mph 5 mph 94% 0.00 in 0 W/m2
04:20 48.8 °F 47.1 °F 30.19 in West 2 mph 3 mph 94% 0.00 in 0 W/m2
04:30 48.7 °F 47.1 °F 30.19 in West 2 mph 4 mph 94% 0.00 in 0 W/m2
04:40 48.6 °F 46.9 °F 30.19 in NW 1 mph 2 mph 94% 0.00 in 0 W/m2
04:50 48.4 °F 46.7 °F 30.19 in West 2 mph 3 mph 94% 0.00 in 0 W/m2
05:00 47.8 °F 46.2 °F 30.19 in West 3 mph 6 mph 94% 0.00 in 0 W/m2
05:10 47.7 °F 46.3 °F 30.19 in West 3 mph 6 mph 95% 0.00 in 0 W/m2
05:20 47.7 °F 46.3 °F 30.19 in West 3 mph 5 mph 95% 0.00 in 0 W/m2
05:30 47.5 °F 46.2 °F 30.19 in WSW 2 mph 5 mph 95% 0.00 in 0 W/m2
05:40 47.1 °F 45.5 °F 30.19 in West 3 mph 6 mph 94% 0.00 in 0 W/m2
05:50 46.6 °F 45.2 °F 30.19 in West 3 mph 5 mph 95% 0.00 in 0 W/m2
06:00 46.4 °F 45 °F 30.20 in West 2 mph 5 mph 95% 0.00 in 0 W/m2
06:10 46.2 °F 44.9 °F 30.20 in Calm   3 mph 95% 0.00 in 0 W/m2
06:20 45.9 °F 44.3 °F 30.21 in WNW 1 mph 1 mph 94% 0.00 in 4 W/m2
06:30 45.7 °F 44.1 °F 30.21 in WSW 1 mph 3 mph 94% 0.00 in 11 W/m2
06:40 45.1 °F 43.8 °F 30.21 in West 1 mph 2 mph 95% 0.00 in 19 W/m2
06:50 45 °F 43.6 °F 30.22 in West 2 mph 3 mph 95% 0.00 in 28 W/m2
07:00 44.6 °F 43.3 °F 30.22 in WSW 1 mph 3 mph 95% 0.00 in 36 W/m2
07:10 44.2 °F 42.9 °F 30.22 in WSW 1 mph 2 mph 95% 0.00 in 48 W/m2
07:20 44.1 °F 42.7 °F 30.23 in West 1 mph 2 mph 95% 0.00 in 72 W/m2
07:30 44.1 °F 43 °F 30.23 in WSW 1 mph 3 mph 96% 0.00 in 129 W/m2
07:40 44.1 °F 43 °F 30.23 in WNW 1 mph 2 mph 96% 0.00 in 133 W/m2
07:50 44.4 °F 43.8 °F 30.24 in NNW 1 mph 2 mph 98% 0.00 in 188 W/m2
08:00 44.8 °F 44.5 °F 30.23 in NNE 1 mph 3 mph 99% 0.00 in 227 W/m2
08:10 45.5 °F 45.2 °F 30.24 in Calm   3 mph 99% 0.00 in 262 W/m2
08:20 46.5 °F 46 °F 30.24 in WSW 2 mph 6 mph 98% 0.00 in 298 W/m2
08:30 48.5 °F 46.6 °F 30.24 in WSW 7 mph 13 mph 93% 0.00 in 336 W/m2
08:40 50.3 °F 47.2 °F 30.24 in West 6 mph 10 mph 89% 0.00 in 365 W/m2
08:50 51.8 °F 47.4 °F 30.23 in West 3 mph 10 mph 85% 0.00 in 394 W/m2
Knjazevac, Serbia
Compliments of Weather Underground - 2 mb